sensor_id;sensor_type;location;lat;lon;timestamp;pressure;altitude;pressure_sealevel;temperature;humidity
23677;BME280;31493;49.058;12.190;2022-10-13T00:01:55;96657.56;;;12.07;100.00
23677;BME280;31493;49.058;12.190;2022-10-13T00:04:22;96656.84;;;12.05;100.00
23677;BME280;31493;49.058;12.190;2022-10-13T00:06:49;96663.00;;;11.90;100.00
23677;BME280;31493;49.058;12.190;2022-10-13T00:09:16;96658.50;;;12.06;100.00
23677;BME280;31493;49.058;12.190;2022-10-13T00:11:43;96663.31;;;12.12;100.00
23677;BME280;31493;49.058;12.190;2022-10-13T00:14:10;96663.59;;;12.07;100.00
23677;BME280;31493;49.058;12.190;2022-10-13T00:16:39;96660.56;;;12.01;100.00
23677;BME280;31493;49.058;12.190;2022-10-13T00:19:06;96660.81;;;12.10;100.00
23677;BME280;31493;49.058;12.190;2022-10-13T00:21:33;96661.81;;;12.08;100.00
23677;BME280;31493;49.058;12.190;2022-10-13T00:24:00;96649.66;;;11.96;100.00
23677;BME280;31493;49.058;12.190;2022-10-13T00:26:27;96647.16;;;11.94;100.00
23677;BME280;31493;49.058;12.190;2022-10-13T00:28:54;96648.72;;;11.97;100.00
23677;BME280;31493;49.058;12.190;2022-10-13T00:31:23;96642.69;;;11.96;100.00
23677;BME280;31493;49.058;12.190;2022-10-13T00:33:52;96648.28;;;11.90;100.00
23677;BME280;31493;49.058;12.190;2022-10-13T00:36:20;96650.13;;;11.88;100.00
23677;BME280;31493;49.058;12.190;2022-10-13T00:38:47;96655.34;;;11.88;100.00
23677;BME280;31493;49.058;12.190;2022-10-13T00:41:15;96656.88;;;11.91;100.00
23677;BME280;31493;49.058;12.190;2022-10-13T00:44:00;96660.97;;;11.95;100.00
23677;BME280;31493;49.058;12.190;2022-10-13T00:46:29;96666.81;;;11.84;100.00
23677;BME280;31493;49.058;12.190;2022-10-13T00:49:01;96661.44;;;11.87;100.00
23677;BME280;31493;49.058;12.190;2022-10-13T00:51:32;96665.72;;;11.88;100.00
23677;BME280;31493;49.058;12.190;2022-10-13T00:54:02;96654.69;;;11.84;100.00
23677;BME280;31493;49.058;12.190;2022-10-13T00:56:30;96673.50;;;11.88;100.00
23677;BME280;31493;49.058;12.190;2022-10-13T00:58:58;96676.53;;;11.80;100.00
23677;BME280;31493;49.058;12.190;2022-10-13T01:01:26;96671.34;;;11.80;100.00
23677;BME280;31493;49.058;12.190;2022-10-13T01:03:53;96657.94;;;11.88;100.00
23677;BME280;31493;49.058;12.190;2022-10-13T01:06:22;96662.81;;;11.93;100.00
23677;BME280;31493;49.058;12.190;2022-10-13T01:08:49;96670.59;;;11.78;100.00
23677;BME280;31493;49.058;12.190;2022-10-13T01:11:33;96655.03;;;11.93;100.00
23677;BME280;31493;49.058;12.190;2022-10-13T01:14:14;96651.38;;;11.82;100.00
23677;BME280;31493;49.058;12.190;2022-10-13T01:16:48;96667.03;;;11.81;100.00
23677;BME280;31493;49.058;12.190;2022-10-13T01:22:22;96652.31;;;11.67;100.00
23677;BME280;31493;49.058;12.190;2022-10-13T01:25:02;96649.91;;;11.64;100.00
23677;BME280;31493;49.058;12.190;2022-10-13T01:27:37;96657.50;;;11.67;100.00
23677;BME280;31493;49.058;12.190;2022-10-13T01:30:14;96653.81;;;11.57;100.00
23677;BME280;31493;49.058;12.190;2022-10-13T01:33:04;96656.66;;;11.67;100.00
23677;BME280;31493;49.058;12.190;2022-10-13T01:35:43;96651.94;;;11.59;100.00
23677;BME280;31493;49.058;12.190;2022-10-13T01:38:21;96654.19;;;11.51;100.00
23677;BME280;31493;49.058;12.190;2022-10-13T01:40:59;96655.03;;;11.51;100.00
23677;BME280;31493;49.058;12.190;2022-10-13T01:43:30;96649.28;;;11.46;100.00
23677;BME280;31493;49.058;12.190;2022-10-13T01:46:05;96657.00;;;11.48;100.00
23677;BME280;31493;49.058;12.190;2022-10-13T01:48:36;96644.31;;;11.43;100.00
23677;BME280;31493;49.058;12.190;2022-10-13T01:51:06;96646.41;;;11.51;100.00
23677;BME280;31493;49.058;12.190;2022-10-13T01:53:35;96645.03;;;11.45;100.00
23677;BME280;31493;49.058;12.190;2022-10-13T01:56:03;96642.66;;;11.42;100.00
23677;BME280;31493;49.058;12.190;2022-10-13T01:58:33;96647.00;;;11.42;100.00
23677;BME280;31493;49.058;12.190;2022-10-13T02:01:11;96653.91;;;11.41;100.00
23677;BME280;31493;49.058;12.190;2022-10-13T02:03:50;96654.78;;;11.42;100.00
23677;BME280;31493;49.058;12.190;2022-10-13T02:06:21;96637.28;;;11.31;100.00
23677;BME280;31493;49.058;12.190;2022-10-13T02:08:55;96647.00;;;11.27;100.00
23677;BME280;31493;49.058;12.190;2022-10-13T02:11:24;96647.56;;;11.18;100.00
23677;BME280;31493;49.058;12.190;2022-10-13T02:13:58;96645.88;;;11.32;100.00
23677;BME280;31493;49.058;12.190;2022-10-13T02:16:29;96649.59;;;11.27;100.00
23677;BME280;31493;49.058;12.190;2022-10-13T02:18:57;96643.22;;;11.19;100.00
23677;BME280;31493;49.058;12.190;2022-10-13T02:21:24;96644.13;;;11.03;100.00
23677;BME280;31493;49.058;12.190;2022-10-13T02:23:51;96646.91;;;11.29;100.00
23677;BME280;31493;49.058;12.190;2022-10-13T02:26:19;96637.47;;;11.28;100.00
23677;BME280;31493;49.058;12.190;2022-10-13T02:28:47;96636.63;;;11.27;100.00
23677;BME280;31493;49.058;12.190;2022-10-13T02:31:14;96635.81;;;11.27;100.00
23677;BME280;31493;49.058;12.190;2022-10-13T02:33:42;96631.44;;;11.27;100.00
23677;BME280;31493;49.058;12.190;2022-10-13T02:36:09;96641.66;;;11.02;100.00
23677;BME280;31493;49.058;12.190;2022-10-13T02:38:37;96632.31;;;11.14;100.00
23677;BME280;31493;49.058;12.190;2022-10-13T02:41:04;96638.53;;;11.11;100.00
23677;BME280;31493;49.058;12.190;2022-10-13T02:43:31;96629.81;;;11.12;100.00
23677;BME280;31493;49.058;12.190;2022-10-13T02:46:02;96624.81;;;11.09;100.00
23677;BME280;31493;49.058;12.190;2022-10-13T02:48:29;96614.63;;;11.06;100.00
23677;BME280;31493;49.058;12.190;2022-10-13T02:50:57;96632.00;;;11.04;100.00
23677;BME280;31493;49.058;12.190;2022-10-13T02:53:24;96617.16;;;10.93;100.00
23677;BME280;31493;49.058;12.190;2022-10-13T02:55:51;96621.03;;;11.00;100.00
23677;BME280;31493;49.058;12.190;2022-10-13T02:58:18;96617.78;;;10.97;100.00
23677;BME280;31493;49.058;12.190;2022-10-13T03:00:45;96618.91;;;10.93;100.00
23677;BME280;31493;49.058;12.190;2022-10-13T03:03:12;96607.78;;;10.91;100.00
23677;BME280;31493;49.058;12.190;2022-10-13T03:05:39;96614.47;;;10.81;100.00
23677;BME280;31493;49.058;12.190;2022-10-13T03:08:08;96613.06;;;10.89;100.00
23677;BME280;31493;49.058;12.190;2022-10-13T03:10:35;96617.97;;;10.94;100.00
23677;BME280;31493;49.058;12.190;2022-10-13T03:13:02;96604.09;;;10.95;100.00
23677;BME280;31493;49.058;12.190;2022-10-13T03:15:29;96617.03;;;10.95;100.00
23677;BME280;31493;49.058;12.190;2022-10-13T03:17:56;96608.34;;;10.96;100.00
23677;BME280;31493;49.058;12.190;2022-10-13T03:20:23;96608.25;;;10.97;100.00
23677;BME280;31493;49.058;12.190;2022-10-13T03:22:50;96610.56;;;11.02;100.00
23677;BME280;31493;49.058;12.190;2022-10-13T03:25:18;96601.84;;;11.03;100.00
23677;BME280;31493;49.058;12.190;2022-10-13T03:27:45;96601.66;;;10.92;100.00
23677;BME280;31493;49.058;12.190;2022-10-13T03:30:12;96597.88;;;10.97;100.00
23677;BME280;31493;49.058;12.190;2022-10-13T03:32:39;96599.47;;;11.00;100.00
23677;BME280;31493;49.058;12.190;2022-10-13T03:35:07;96599.91;;;10.92;100.00
23677;BME280;31493;49.058;12.190;2022-10-13T03:37:34;96601.66;;;10.92;100.00
23677;BME280;31493;49.058;12.190;2022-10-13T03:40:01;96606.94;;;10.90;100.00
23677;BME280;31493;49.058;12.190;2022-10-13T03:42:29;96602.44;;;10.94;100.00
23677;BME280;31493;49.058;12.190;2022-10-13T03:44:57;96602.81;;;10.88;100.00
23677;BME280;31493;49.058;12.190;2022-10-13T03:47:24;96610.00;;;10.83;100.00
23677;BME280;31493;49.058;12.190;2022-10-13T03:49:51;96610.66;;;10.72;100.00
23677;BME280;31493;49.058;12.190;2022-10-13T03:52:19;96610.13;;;10.81;100.00
23677;BME280;31493;49.058;12.190;2022-10-13T03:54:46;96617.50;;;10.87;100.00
23677;BME280;31493;49.058;12.190;2022-10-13T03:57:14;96619.19;;;10.88;100.00
23677;BME280;31493;49.058;12.190;2022-10-13T03:59:42;96622.69;;;10.87;100.00
23677;BME280;31493;49.058;12.190;2022-10-13T04:02:09;96623.78;;;10.83;100.00
23677;BME280;31493;49.058;12.190;2022-10-13T04:04:36;96619.44;;;10.84;100.00
23677;BME280;31493;49.058;12.190;2022-10-13T04:07:04;96617.50;;;10.87;100.00
23677;BME280;31493;49.058;12.190;2022-10-13T04:09:32;96618.16;;;10.91;100.00
23677;BME280;31493;49.058;12.190;2022-10-13T04:11:59;96607.06;;;10.89;100.00
23677;BME280;31493;49.058;12.190;2022-10-13T04:14:26;96606.03;;;10.91;100.00
23677;BME280;31493;49.058;12.190;2022-10-13T04:16:55;96614.56;;;10.93;100.00
23677;BME280;31493;49.058;12.190;2022-10-13T04:19:22;96609.06;;;10.98;100.00
23677;BME280;31493;49.058;12.190;2022-10-13T04:21:49;96607.31;;;10.98;100.00
23677;BME280;31493;49.058;12.190;2022-10-13T04:24:17;96615.56;;;10.91;100.00
23677;BME280;31493;49.058;12.190;2022-10-13T04:26:44;96619.91;;;10.76;100.00
23677;BME280;31493;49.058;12.190;2022-10-13T04:29:11;96615.44;;;10.92;100.00
23677;BME280;31493;49.058;12.190;2022-10-13T04:31:39;96611.13;;;10.93;100.00
23677;BME280;31493;49.058;12.190;2022-10-13T04:34:09;96615.00;;;10.86;100.00
23677;BME280;31493;49.058;12.190;2022-10-13T04:36:36;96614.00;;;10.88;100.00
23677;BME280;31493;49.058;12.190;2022-10-13T04:39:03;96620.38;;;10.83;100.00
23677;BME280;31493;49.058;12.190;2022-10-13T04:41:30;96608.63;;;10.77;100.00
23677;BME280;31493;49.058;12.190;2022-10-13T04:43:57;96615.81;;;10.86;100.00
23677;BME280;31493;49.058;12.190;2022-10-13T04:46:27;96616.41;;;10.77;100.00
23677;BME280;31493;49.058;12.190;2022-10-13T04:48:56;96608.97;;;10.85;100.00
23677;BME280;31493;49.058;12.190;2022-10-13T04:51:25;96606.84;;;10.92;100.00
23677;BME280;31493;49.058;12.190;2022-10-13T04:53:55;96615.56;;;10.91;100.00
23677;BME280;31493;49.058;12.190;2022-10-13T04:56:24;96618.97;;;10.77;100.00
23677;BME280;31493;49.058;12.190;2022-10-13T04:58:51;96611.41;;;10.88;100.00
23677;BME280;31493;49.058;12.190;2022-10-13T05:01:21;96603.06;;;10.83;100.00
23677;BME280;31493;49.058;12.190;2022-10-13T05:03:49;96593.91;;;10.92;100.00
23677;BME280;31493;49.058;12.190;2022-10-13T05:06:19;96599.19;;;10.90;100.00
23677;BME280;31493;49.058;12.190;2022-10-13T05:08:48;96597.78;;;10.85;100.00
23677;BME280;31493;49.058;12.190;2022-10-13T05:11:15;96594.91;;;11.03;100.00
23677;BME280;31493;49.058;12.190;2022-10-13T05:13:44;96602.44;;;10.94;100.00
23677;BME280;31493;49.058;12.190;2022-10-13T05:16:13;96599.00;;;10.79;100.00
23677;BME280;31493;49.058;12.190;2022-10-13T05:18:40;96596.13;;;10.84;100.00
23677;BME280;31493;49.058;12.190;2022-10-13T05:21:09;96602.34;;;10.81;100.00
23677;BME280;31493;49.058;12.190;2022-10-13T05:23:36;96609.66;;;10.74;100.00
23677;BME280;31493;49.058;12.190;2022-10-13T05:26:07;96601.31;;;10.84;100.00
23677;BME280;31493;49.058;12.190;2022-10-13T05:28:34;96612.59;;;10.83;100.00
23677;BME280;31493;49.058;12.190;2022-10-13T05:31:08;96608.81;;;10.88;100.00
23677;BME280;31493;49.058;12.190;2022-10-13T05:33:36;96610.13;;;10.81;100.00
23677;BME280;31493;49.058;12.190;2022-10-13T05:36:05;96608.97;;;10.85;100.00
23677;BME280;31493;49.058;12.190;2022-10-13T05:38:32;96603.91;;;10.84;100.00
23677;BME280;31493;49.058;12.190;2022-10-13T05:41:03;96598.19;;;10.93;100.00
23677;BME280;31493;49.058;12.190;2022-10-13T05:43:32;96602.44;;;10.94;100.00
23677;BME280;31493;49.058;12.190;2022-10-13T05:45:59;96615.09;;;10.84;100.00
23677;BME280;31493;49.058;12.190;2022-10-13T05:48:27;96608.34;;;10.82;100.00
23677;BME280;31493;49.058;12.190;2022-10-13T05:50:56;96613.53;;;10.96;100.00
23677;BME280;31493;49.058;12.190;2022-10-13T05:53:27;96603.38;;;10.93;100.00
23677;BME280;31493;49.058;12.190;2022-10-13T05:55:57;96599.47;;;11.00;100.00
23677;BME280;31493;49.058;12.190;2022-10-13T05:58:33;96590.75;;;11.01;100.00
23677;BME280;31493;49.058;12.190;2022-10-13T06:01:04;96595.22;;;10.99;100.00
23677;BME280;31493;49.058;12.190;2022-10-13T06:03:33;96597.50;;;11.03;100.00
23677;BME280;31493;49.058;12.190;2022-10-13T06:06:00;96589.28;;;10.97;100.00
23677;BME280;31493;49.058;12.190;2022-10-13T06:08:28;96578.16;;;11.09;100.00
23677;BME280;31493;49.058;12.190;2022-10-13T06:10:55;96585.84;;;11.11;100.00
23677;BME280;31493;49.058;12.190;2022-10-13T06:13:23;96588.16;;;11.15;100.00
23677;BME280;31493;49.058;12.190;2022-10-13T06:15:51;96585.44;;;11.17;100.00
23677;BME280;31493;49.058;12.190;2022-10-13T06:18:18;96581.75;;;11.21;100.00
23677;BME280;31493;49.058;12.190;2022-10-13T06:20:45;96579.72;;;11.26;100.00
23677;BME280;31493;49.058;12.190;2022-10-13T06:23:12;96580.94;;;11.20;100.00
23677;BME280;31493;49.058;12.190;2022-10-13T06:25:45;96586.63;;;11.40;100.00
23677;BME280;31493;49.058;12.190;2022-10-13T06:28:12;96584.69;;;11.29;100.00
23677;BME280;31493;49.058;12.190;2022-10-13T06:30:40;96584.09;;;11.11;100.00
23677;BME280;31493;49.058;12.190;2022-10-13T06:33:09;96587.97;;;11.04;100.00
23677;BME280;31493;49.058;12.190;2022-10-13T06:35:36;96584.66;;;11.02;100.00
23677;BME280;31493;49.058;12.190;2022-10-13T06:38:03;96582.88;;;11.02;100.00
23677;BME280;31493;49.058;12.190;2022-10-13T06:40:30;96590.66;;;11.02;100.00
23677;BME280;31493;49.058;12.190;2022-10-13T06:42:57;96580.13;;;11.06;100.00
23677;BME280;31493;49.058;12.190;2022-10-13T06:45:24;96585.75;;;11.12;100.00
23677;BME280;31493;49.058;12.190;2022-10-13T06:47:51;96585.75;;;11.12;100.00
23677;BME280;31493;49.058;12.190;2022-10-13T06:50:20;96583.63;;;11.19;100.00
23677;BME280;31493;49.058;12.190;2022-10-13T06:52:47;96582.31;;;11.26;100.00
23677;BME280;31493;49.058;12.190;2022-10-13T06:55:14;96582.75;;;11.33;100.00
23677;BME280;31493;49.058;12.190;2022-10-13T06:57:41;96585.13;;;11.50;100.00
23677;BME280;31493;49.058;12.190;2022-10-13T07:00:09;96582.81;;;11.45;100.00
23677;BME280;31493;49.058;12.190;2022-10-13T07:02:36;96585.00;;;11.24;100.00
23677;BME280;31493;49.058;12.190;2022-10-13T07:05:04;96579.88;;;11.37;100.00
23677;BME280;31493;49.058;12.190;2022-10-13T07:07:33;96583.63;;;11.46;100.00
23677;BME280;31493;49.058;12.190;2022-10-13T07:10:00;96584.09;;;11.52;100.00
23677;BME280;31493;49.058;12.190;2022-10-13T07:12:27;96578.63;;;11.57;100.00
23677;BME280;31493;49.058;12.190;2022-10-13T07:14:54;96586.03;;;11.76;100.00
23677;BME280;31493;49.058;12.190;2022-10-13T07:17:21;96582.91;;;11.85;100.00
23677;BME280;31493;49.058;12.190;2022-10-13T07:19:48;96596.88;;;12.09;100.00
23677;BME280;31493;49.058;12.190;2022-10-13T07:22:15;96596.63;;;12.00;100.00
23677;BME280;31493;49.058;12.190;2022-10-13T07:24:43;96587.38;;;11.96;100.00
23677;BME280;31493;49.058;12.190;2022-10-13T07:27:10;96586.44;;;11.97;100.00
23677;BME280;31493;49.058;12.190;2022-10-13T07:29:37;96579.50;;;11.97;100.00
23677;BME280;31493;49.058;12.190;2022-10-13T07:32:05;96582.63;;;12.15;100.00
23677;BME280;31493;49.058;12.190;2022-10-13T07:34:32;96572.88;;;12.06;100.00
23677;BME280;31493;49.058;12.190;2022-10-13T07:36:59;96579.97;;;12.17;100.00
23677;BME280;31493;49.058;12.190;2022-10-13T07:39:26;96577.56;;;12.14;100.00
23677;BME280;31493;49.058;12.190;2022-10-13T07:41:54;96578.34;;;12.01;100.00
23677;BME280;31493;49.058;12.190;2022-10-13T07:44:22;96573.72;;;12.06;100.00
23677;BME280;31493;49.058;12.190;2022-10-13T07:46:49;96571.13;;;12.19;100.00
23677;BME280;31493;49.058;12.190;2022-10-13T07:49:16;96573.03;;;12.30;100.00
23677;BME280;31493;49.058;12.190;2022-10-13T07:51:43;96577.97;;;12.20;100.00
23677;BME280;31493;49.058;12.190;2022-10-13T07:54:10;96573.31;;;12.13;100.00
23677;BME280;31493;49.058;12.190;2022-10-13T07:56:37;96571.13;;;12.19;100.00
23677;BME280;31493;49.058;12.190;2022-10-13T07:59:06;96571.03;;;12.21;100.00
23677;BME280;31493;49.058;12.190;2022-10-13T08:01:33;96574.41;;;12.08;100.00
23677;BME280;31493;49.058;12.190;2022-10-13T08:04:00;96573.44;;;12.36;100.00
23677;BME280;31493;49.058;12.190;2022-10-13T08:06:27;96571.25;;;12.30;100.00
23677;BME280;31493;49.058;12.190;2022-10-13T08:08:54;96563.06;;;12.36;100.00
23677;BME280;31493;49.058;12.190;2022-10-13T08:11:22;96568.53;;;12.32;100.00
23677;BME280;31493;49.058;12.190;2022-10-13T08:13:50;96558.69;;;12.24;100.00
23677;BME280;31493;49.058;12.190;2022-10-13T08:16:19;96555.88;;;12.27;100.00
23677;BME280;31493;49.058;12.190;2022-10-13T08:18:46;96563.03;;;12.11;100.00
23677;BME280;31493;49.058;12.190;2022-10-13T08:21:15;96563.03;;;12.24;100.00
23677;BME280;31493;49.058;12.190;2022-10-13T08:23:43;96552.25;;;12.30;100.00
23677;BME280;31493;49.058;12.190;2022-10-13T08:26:14;96558.28;;;12.30;100.00
23677;BME280;31493;49.058;12.190;2022-10-13T08:28:42;96561.09;;;12.66;100.00
23677;BME280;31493;49.058;12.190;2022-10-13T08:31:09;96555.47;;;12.72;100.00
23677;BME280;31493;49.058;12.190;2022-10-13T08:33:37;96566.69;;;12.59;100.00
23677;BME280;31493;49.058;12.190;2022-10-13T08:36:06;96572.84;;;12.71;100.00
23677;BME280;31493;49.058;12.190;2022-10-13T08:38:33;96566.78;;;12.58;100.00
23677;BME280;31493;49.058;12.190;2022-10-13T08:41:01;96561.09;;;12.66;100.00
23677;BME280;31493;49.058;12.190;2022-10-13T08:43:28;96561.19;;;12.51;100.00
23677;BME280;31493;49.058;12.190;2022-10-13T08:45:58;96561.69;;;12.56;100.00
23677;BME280;31493;49.058;12.190;2022-10-13T08:48:29;96565.22;;;12.68;100.00
23677;BME280;31493;49.058;12.190;2022-10-13T08:51:00;96563.28;;;12.59;100.00
23677;BME280;31493;49.058;12.190;2022-10-13T08:53:30;96572.91;;;12.57;100.00
23677;BME280;31493;49.058;12.190;2022-10-13T08:56:02;96563.44;;;12.81;100.00
23677;BME280;31493;49.058;12.190;2022-10-13T08:58:32;96565.13;;;12.44;100.00
23677;BME280;31493;49.058;12.190;2022-10-13T09:01:10;96579.69;;;12.59;100.00
23677;BME280;31493;49.058;12.190;2022-10-13T09:03:44;96568.34;;;12.48;100.00
23677;BME280;31493;49.058;12.190;2022-10-13T09:06:16;96576.88;;;12.62;100.00
23677;BME280;31493;49.058;12.190;2022-10-13T09:08:48;96570.94;;;12.73;100.00
23677;BME280;31493;49.058;12.190;2022-10-13T09:11:16;96575.75;;;12.54;100.00
23677;BME280;31493;49.058;12.190;2022-10-13T09:13:44;96575.44;;;12.71;100.00
23677;BME280;31493;49.058;12.190;2022-10-13T09:16:11;96576.69;;;12.53;100.00
23677;BME280;31493;49.058;12.190;2022-10-13T09:18:38;96577.50;;;12.53;100.00
23677;BME280;31493;49.058;12.190;2022-10-13T09:21:10;96584.25;;;12.69;100.00
23677;BME280;31493;49.058;12.190;2022-10-13T09:23:42;96576.75;;;12.51;100.00
23677;BME280;31493;49.058;12.190;2022-10-13T09:26:18;96573.97;;;12.80;100.00
23677;BME280;31493;49.058;12.190;2022-10-13T09:28:47;96575.03;;;12.64;100.00
23677;BME280;31493;49.058;12.190;2022-10-13T09:31:16;96574.78;;;12.80;100.00
23677;BME280;31493;49.058;12.190;2022-10-13T09:33:44;96555.66;;;12.81;100.00
23677;BME280;31493;49.058;12.190;2022-10-13T09:36:13;96572.59;;;12.74;100.00
23677;BME280;31493;49.058;12.190;2022-10-13T09:38:44;96570.72;;;12.63;100.00
23677;BME280;31493;49.058;12.190;2022-10-13T09:41:30;96560.75;;;12.57;100.00
23677;BME280;31493;49.058;12.190;2022-10-13T09:44:01;96551.53;;;12.66;100.00
23677;BME280;31493;49.058;12.190;2022-10-13T09:46:35;96567.94;;;12.67;100.00
23677;BME280;31493;49.058;12.190;2022-10-13T09:49:06;96562.50;;;12.82;100.00
23677;BME280;31493;49.058;12.190;2022-10-13T09:51:36;96562.09;;;13.01;100.00
23677;BME280;31493;49.058;12.190;2022-10-13T09:54:23;96550.25;;;12.84;100.00
23677;BME280;31493;49.058;12.190;2022-10-13T09:56:53;96550.78;;;12.77;100.00
23677;BME280;31493;49.058;12.190;2022-10-13T09:59:29;96548.34;;;12.99;100.00
23677;BME280;31493;49.058;12.190;2022-10-13T10:02:00;96562.81;;;12.90;100.00
23677;BME280;31493;49.058;12.190;2022-10-13T10:04:34;96563.13;;;12.86;100.00
23677;BME280;31493;49.058;12.190;2022-10-13T10:07:09;96553.59;;;12.74;100.00
23677;BME280;31493;49.058;12.190;2022-10-13T10:09:41;96568.66;;;12.69;100.00
23677;BME280;31493;49.058;12.190;2022-10-13T10:12:14;96558.69;;;12.75;100.00
23677;BME280;31493;49.058;12.190;2022-10-13T10:14:42;96556.81;;;12.77;100.00
23677;BME280;31493;49.058;12.190;2022-10-13T10:17:22;96555.66;;;12.81;100.00
23677;BME280;31493;49.058;12.190;2022-10-13T10:20:00;96558.38;;;12.80;100.00
23677;BME280;31493;49.058;12.190;2022-10-13T10:22:35;96547.78;;;12.83;100.00
23677;BME280;31493;49.058;12.190;2022-10-13T10:25:21;96562.00;;;12.90;100.00
23677;BME280;31493;49.058;12.190;2022-10-13T10:28:04;96549.84;;;12.90;100.00
23677;BME280;31493;49.058;12.190;2022-10-13T10:30:42;96545.31;;;13.05;100.00
23677;BME280;31493;49.058;12.190;2022-10-13T10:33:11;96546.84;;;12.84;100.00
23677;BME280;31493;49.058;12.190;2022-10-13T10:35:43;96539.97;;;12.96;100.00
23677;BME280;31493;49.058;12.190;2022-10-13T10:38:24;96536.41;;;12.97;100.00
23677;BME280;31493;49.058;12.190;2022-10-13T10:41:00;96533.59;;;13.00;100.00
23677;BME280;31493;49.058;12.190;2022-10-13T10:43:45;96522.88;;;13.04;100.00
23677;BME280;31493;49.058;12.190;2022-10-13T10:46:15;96528.03;;;13.17;100.00
23677;BME280;31493;49.058;12.190;2022-10-13T10:48:44;96515.69;;;13.21;100.00
23677;BME280;31493;49.058;12.190;2022-10-13T10:51:12;96512.03;;;13.23;100.00
23677;BME280;31493;49.058;12.190;2022-10-13T10:53:51;96516.03;;;13.40;100.00
23677;BME280;31493;49.058;12.190;2022-10-13T10:56:26;96505.84;;;13.37;100.00
23677;BME280;31493;49.058;12.190;2022-10-13T10:59:04;96502.72;;;13.32;100.00
23677;BME280;31493;49.058;12.190;2022-10-13T11:01:37;96507.34;;;13.52;100.00
23677;BME280;31493;49.058;12.190;2022-10-13T11:04:30;96499.31;;;13.55;100.00
23677;BME280;31493;49.058;12.190;2022-10-13T11:06:58;96500.44;;;13.40;100.00
23677;BME280;31493;49.058;12.190;2022-10-13T11:10:02;96498.91;;;13.49;100.00
23677;BME280;31493;49.058;12.190;2022-10-13T11:13:03;96496.56;;;13.46;100.00
23677;BME280;31493;49.058;12.190;2022-10-13T11:15:41;96500.13;;;13.56;100.00
23677;BME280;31493;49.058;12.190;2022-10-13T11:21:13;96480.06;;;13.34;100.00
23677;BME280;31493;49.058;12.190;2022-10-13T11:23:44;96479.25;;;13.33;100.00
23677;BME280;31493;49.058;12.190;2022-10-13T11:26:29;96488.13;;;13.42;100.00
23677;BME280;31493;49.058;12.190;2022-10-13T11:28:58;96483.22;;;13.26;100.00
23677;BME280;31493;49.058;12.190;2022-10-13T11:31:29;96475.84;;;13.20;100.00
23677;BME280;31493;49.058;12.190;2022-10-13T11:33:58;96474.44;;;13.03;100.00
23677;BME280;31493;49.058;12.190;2022-10-13T11:36:46;96480.34;;;13.05;100.00
23677;BME280;31493;49.058;12.190;2022-10-13T11:39:29;96470.00;;;13.29;100.00
23677;BME280;31493;49.058;12.190;2022-10-13T11:42:07;96468.66;;;13.24;100.00
23677;BME280;31493;49.058;12.190;2022-10-13T11:44:45;96467.66;;;13.37;100.00
23677;BME280;31493;49.058;12.190;2022-10-13T11:47:29;96456.72;;;13.45;100.00
23677;BME280;31493;49.058;12.190;2022-10-13T11:50:06;96450.13;;;13.52;100.00
23677;BME280;31493;49.058;12.190;2022-10-13T11:53:02;96451.56;;;13.67;100.00
23677;BME280;31493;49.058;12.190;2022-10-13T11:55:41;96450.63;;;13.68;100.00
23677;BME280;31493;49.058;12.190;2022-10-13T11:58:14;96442.00;;;13.68;100.00
23677;BME280;31493;49.058;12.190;2022-10-13T12:00:53;96445.09;;;13.73;100.00
23677;BME280;31493;49.058;12.190;2022-10-13T12:03:24;96450.78;;;13.78;100.00
23677;BME280;31493;49.058;12.190;2022-10-13T12:05:51;96441.13;;;13.91;100.00
23677;BME280;31493;49.058;12.190;2022-10-13T12:08:19;96448.34;;;13.99;100.00
23677;BME280;31493;49.058;12.190;2022-10-13T12:10:51;96439.41;;;13.68;100.00
23677;BME280;31493;49.058;12.190;2022-10-13T12:13:22;96431.91;;;13.87;100.00
23677;BME280;31493;49.058;12.190;2022-10-13T12:15:57;96428.44;;;13.87;100.00
23677;BME280;31493;49.058;12.190;2022-10-13T12:18:27;96415.72;;;14.06;100.00
23677;BME280;31493;49.058;12.190;2022-10-13T12:21:01;96432.81;;;13.86;100.00
23677;BME280;31493;49.058;12.190;2022-10-13T12:23:30;96414.16;;;14.04;100.00
23677;BME280;31493;49.058;12.190;2022-10-13T12:25:57;96405.41;;;14.05;100.00
23677;BME280;31493;49.058;12.190;2022-10-13T12:28:27;96407.91;;;14.29;100.00
23677;BME280;31493;49.058;12.190;2022-10-13T12:30:58;96401.38;;;14.34;100.00
23677;BME280;31493;49.058;12.190;2022-10-13T12:33:29;96408.50;;;14.21;100.00
23677;BME280;31493;49.058;12.190;2022-10-13T12:36:11;96397.59;;;14.38;100.00
23677;BME280;31493;49.058;12.190;2022-10-13T12:38:42;96405.53;;;14.25;100.00
23677;BME280;31493;49.058;12.190;2022-10-13T12:41:14;96401.88;;;14.06;100.00
23677;BME280;31493;49.058;12.190;2022-10-13T12:43:44;96396.78;;;14.15;100.00
23677;BME280;31493;49.058;12.190;2022-10-13T12:46:37;96405.66;;;14.13;100.00
23677;BME280;31493;49.058;12.190;2022-10-13T12:49:05;96394.50;;;13.77;100.00
23677;BME280;31493;49.058;12.190;2022-10-13T12:51:35;96396.66;;;14.06;100.00
23677;BME280;31493;49.058;12.190;2022-10-13T12:54:06;96390.72;;;14.04;100.00
23677;BME280;31493;49.058;12.190;2022-10-13T12:56:33;96393.22;;;14.05;100.00
23677;BME280;31493;49.058;12.190;2022-10-13T12:59:01;96390.88;;;14.13;100.00
23677;BME280;31493;49.058;12.190;2022-10-13T13:01:31;96381.84;;;14.29;100.00
23677;BME280;31493;49.058;12.190;2022-10-13T13:04:01;96385.75;;;14.23;100.00